sensor_id;sensor_type;location;lat;lon;timestamp;pressure;altitude;pressure_sealevel;temperature;humidity
80640;BME280;69992;60.170;24.692;2023-11-19T00:00:51;101894.81;;;-8.80;31.41
80640;BME280;69992;60.170;24.692;2023-11-19T00:03:16;101894.56;;;-6.68;31.27
80640;BME280;69992;60.170;24.692;2023-11-19T00:05:41;101891.46;;;-5.78;31.31
80640;BME280;69992;60.170;24.692;2023-11-19T00:08:06;101891.12;;;-5.84;31.34
80640;BME280;69992;60.170;24.692;2023-11-19T00:10:32;101891.63;;;-5.88;31.35
80640;BME280;69992;60.170;24.692;2023-11-19T00:12:57;101890.41;;;-6.88;31.37
80640;BME280;69992;60.170;24.692;2023-11-19T00:15:22;101889.47;;;-5.93;31.38
80640;BME280;69992;60.170;24.692;2023-11-19T00:17:48;101888.33;;;-5.90;31.36
80640;BME280;69992;60.170;24.692;2023-11-19T00:20:15;101888.76;;;-4.86;31.38
80640;BME280;69992;60.170;24.692;2023-11-19T00:22:39;101886.34;;;-5.82;31.36
80640;BME280;69992;60.170;24.692;2023-11-19T00:25:06;101883.52;;;-6.80;31.37
80640;BME280;69992;60.170;24.692;2023-11-19T00:27:30;101879.16;;;-5.85;31.42
80640;BME280;69992;60.170;24.692;2023-11-19T00:29:55;101876.03;;;-5.79;31.40
80640;BME280;69992;60.170;24.692;2023-11-19T00:32:24;101877.64;;;-6.85;31.43
80640;BME280;69992;60.170;24.692;2023-11-19T00:34:47;101873.50;;;-5.93;31.46
80640;BME280;69992;60.170;24.692;2023-11-19T00:37:11;101869.75;;;-5.96;31.49
80640;BME280;69992;60.170;24.692;2023-11-19T00:39:36;101870.92;;;-6.91;31.45
80640;BME280;69992;60.170;24.692;2023-11-19T00:42:03;101868.29;;;-6.05;31.46
80640;BME280;69992;60.170;24.692;2023-11-19T00:44:29;101867.38;;;-6.22;31.51
80640;BME280;69992;60.170;24.692;2023-11-19T00:46:52;101869.47;;;-7.19;31.53
80640;BME280;69992;60.170;24.692;2023-11-19T00:49:17;101870.66;;;-6.13;31.48
80640;BME280;69992;60.170;24.692;2023-11-19T00:51:43;101868.35;;;-5.10;31.47
80640;BME280;69992;60.170;24.692;2023-11-19T00:54:08;101869.84;;;-6.07;31.51
80640;BME280;69992;60.170;24.692;2023-11-19T00:56:37;101869.26;;;-6.02;31.46
80640;BME280;69992;60.170;24.692;2023-11-19T00:58:59;101865.11;;;-6.95;31.44
80640;BME280;69992;60.170;24.692;2023-11-19T01:01:25;101862.31;;;-5.87;31.42
80640;BME280;69992;60.170;24.692;2023-11-19T01:03:51;101860.28;;;-6.87;31.45
80640;BME280;69992;60.170;24.692;2023-11-19T01:06:26;101854.45;;;-5.76;31.44
80640;BME280;69992;60.170;24.692;2023-11-19T01:08:43;101852.18;;;-5.62;31.39
80640;BME280;69992;60.170;24.692;2023-11-19T01:11:07;101851.41;;;-6.57;31.42
80640;BME280;69992;60.170;24.692;2023-11-19T01:13:32;101851.54;;;-5.47;31.37
80640;BME280;69992;60.170;24.692;2023-11-19T01:15:58;101851.97;;;-6.50;31.41
80640;BME280;69992;60.170;24.692;2023-11-19T01:18:23;101847.69;;;-5.47;31.42
80640;BME280;69992;60.170;24.692;2023-11-19T01:20:51;101841.37;;;-5.43;31.41
80640;BME280;69992;60.170;24.692;2023-11-19T01:23:14;101839.97;;;-6.34;31.40
80640;BME280;69992;60.170;24.692;2023-11-19T01:25:39;101838.39;;;-5.31;31.38
80640;BME280;69992;60.170;24.692;2023-11-19T01:28:05;101834.14;;;-5.27;31.38
80640;BME280;69992;60.170;24.692;2023-11-19T01:30:30;101829.88;;;-5.28;31.42
80640;BME280;69992;60.170;24.692;2023-11-19T01:33:05;101825.26;;;-6.21;31.42
80640;BME280;69992;60.170;24.692;2023-11-19T01:35:21;101819.92;;;-6.12;31.39
80640;BME280;69992;60.170;24.692;2023-11-19T01:37:47;101814.47;;;-6.10;31.40
80640;BME280;69992;60.170;24.692;2023-11-19T01:40:12;101815.45;;;-5.08;31.42
80640;BME280;69992;60.170;24.692;2023-11-19T01:42:37;101812.09;;;-6.06;31.41
80640;BME280;69992;60.170;24.692;2023-11-19T01:45:04;101809.44;;;-6.14;31.44
80640;BME280;69992;60.170;24.692;2023-11-19T01:47:30;101805.33;;;-6.23;31.43
80640;BME280;69992;60.170;24.692;2023-11-19T01:49:54;101798.93;;;-5.44;31.57
80640;BME280;69992;60.170;24.692;2023-11-19T01:52:19;101793.19;;;-4.35;31.56
80640;BME280;69992;60.170;24.692;2023-11-19T01:54:45;101788.21;;;-6.16;31.51
80640;BME280;69992;60.170;24.692;2023-11-19T01:57:10;101783.07;;;-6.02;31.48
80640;BME280;69992;60.170;24.692;2023-11-19T01:59:36;101780.63;;;-4.91;31.44
80640;BME280;69992;60.170;24.692;2023-11-19T02:02:01;101775.43;;;-5.88;31.47
80640;BME280;69992;60.170;24.692;2023-11-19T02:04:27;101772.85;;;-5.77;31.43
80640;BME280;69992;60.170;24.692;2023-11-19T02:06:54;101771.24;;;-8.63;31.41
80640;BME280;69992;60.170;24.692;2023-11-19T02:09:18;101760.55;;;-5.71;31.40
80640;BME280;69992;60.170;24.692;2023-11-19T02:11:43;101760.10;;;-5.76;31.40
80640;BME280;69992;60.170;24.692;2023-11-19T02:14:08;101766.22;;;-5.86;31.40
80640;BME280;69992;60.170;24.692;2023-11-19T02:16:33;101769.54;;;-5.01;31.43
80640;BME280;69992;60.170;24.692;2023-11-19T02:18:59;101770.48;;;-7.13;31.46
80640;BME280;69992;60.170;24.692;2023-11-19T02:21:24;101766.63;;;-6.25;31.45
80640;BME280;69992;60.170;24.692;2023-11-19T02:23:51;101765.17;;;-8.30;31.46
80640;BME280;69992;60.170;24.692;2023-11-19T02:26:22;101757.53;;;-6.36;31.49
80640;BME280;69992;60.170;24.692;2023-11-19T02:28:41;101758.03;;;-5.35;31.48
80640;BME280;69992;60.170;24.692;2023-11-19T02:31:06;101758.24;;;-6.26;31.49
80640;BME280;69992;60.170;24.692;2023-11-19T02:33:32;101755.52;;;-6.21;31.48
80640;BME280;69992;60.170;24.692;2023-11-19T02:35:57;101753.34;;;-7.11;31.47
80640;BME280;69992;60.170;24.692;2023-11-19T02:38:23;101751.42;;;-5.03;31.42
80640;BME280;69992;60.170;24.692;2023-11-19T02:40:48;101748.18;;;-4.94;31.39
80640;BME280;69992;60.170;24.692;2023-11-19T02:43:14;101745.71;;;-5.93;31.35
80640;BME280;69992;60.170;24.692;2023-11-19T02:45:39;101740.21;;;-5.04;31.38
80640;BME280;69992;60.170;24.692;2023-11-19T02:48:05;101738.70;;;-6.12;31.44
80640;BME280;69992;60.170;24.692;2023-11-19T02:50:29;101737.86;;;-6.22;31.44
80640;BME280;69992;60.170;24.692;2023-11-19T02:52:56;101732.66;;;-6.27;31.46
80640;BME280;69992;60.170;24.692;2023-11-19T02:55:20;101725.96;;;-5.31;31.45
80640;BME280;69992;60.170;24.692;2023-11-19T02:57:48;101725.84;;;-4.25;31.43
80640;BME280;69992;60.170;24.692;2023-11-19T03:00:13;101722.67;;;-6.18;31.40
80640;BME280;69992;60.170;24.692;2023-11-19T03:02:38;101718.77;;;-6.19;31.39
80640;BME280;69992;60.170;24.692;2023-11-19T03:05:02;101718.65;;;-4.33;31.42
80640;BME280;69992;60.170;24.692;2023-11-19T03:07:28;101717.31;;;-6.42;31.45
80640;BME280;69992;60.170;24.692;2023-11-19T03:09:53;101716.47;;;-6.50;31.48
80640;BME280;69992;60.170;24.692;2023-11-19T03:12:19;101713.73;;;-6.50;31.45
80640;BME280;69992;60.170;24.692;2023-11-19T03:14:44;101712.44;;;-5.52;31.44
80640;BME280;69992;60.170;24.692;2023-11-19T03:17:10;101708.85;;;-5.49;31.44
80640;BME280;69992;60.170;24.692;2023-11-19T03:19:35;101705.06;;;-6.47;31.42
80640;BME280;69992;60.170;24.692;2023-11-19T03:22:01;101698.61;;;-5.49;31.45
80640;BME280;69992;60.170;24.692;2023-11-19T03:24:26;101697.91;;;-6.49;31.40
80640;BME280;69992;60.170;24.692;2023-11-19T03:26:52;101695.58;;;-8.57;31.43
80640;BME280;69992;60.170;24.692;2023-11-19T03:29:17;101691.54;;;-4.72;31.43
80640;BME280;69992;60.170;24.692;2023-11-19T03:31:42;101688.26;;;-4.72;31.43
80640;BME280;69992;60.170;24.692;2023-11-19T03:34:07;101686.62;;;-6.60;31.43
80640;BME280;69992;60.170;24.692;2023-11-19T03:36:33;101687.24;;;-5.57;31.41
80640;BME280;69992;60.170;24.692;2023-11-19T03:38:58;101684.69;;;-6.55;31.41
80640;BME280;69992;60.170;24.692;2023-11-19T03:41:24;101683.84;;;-5.63;31.41
80640;BME280;69992;60.170;24.692;2023-11-19T03:43:50;101680.67;;;-6.75;31.45
80640;BME280;69992;60.170;24.692;2023-11-19T03:46:17;101677.00;;;-5.76;31.47
80640;BME280;69992;60.170;24.692;2023-11-19T03:48:40;101675.47;;;-5.67;31.45
80640;BME280;69992;60.170;24.692;2023-11-19T03:51:06;101668.66;;;-5.68;31.41
80640;BME280;69992;60.170;24.692;2023-11-19T03:53:31;101669.70;;;-4.72;31.43
80640;BME280;69992;60.170;24.692;2023-11-19T03:55:57;101670.96;;;-7.72;31.44
80640;BME280;69992;60.170;24.692;2023-11-19T03:58:22;101670.30;;;-5.78;31.45
80640;BME280;69992;60.170;24.692;2023-11-19T04:00:48;101661.31;;;-4.81;31.45
80640;BME280;69992;60.170;24.692;2023-11-19T04:03:13;101659.70;;;-6.74;31.44
80640;BME280;69992;60.170;24.692;2023-11-19T04:05:39;101658.30;;;-4.76;31.44
80640;BME280;69992;60.170;24.692;2023-11-19T04:08:04;101657.63;;;-5.72;31.48
80640;BME280;69992;60.170;24.692;2023-11-19T04:10:29;101651.91;;;-5.68;31.46
80640;BME280;69992;60.170;24.692;2023-11-19T04:12:55;101649.92;;;-6.71;31.48
80640;BME280;69992;60.170;24.692;2023-11-19T04:15:20;101648.47;;;-6.74;31.47
80640;BME280;69992;60.170;24.692;2023-11-19T04:17:45;101645.39;;;-5.77;31.49
80640;BME280;69992;60.170;24.692;2023-11-19T04:20:11;101639.60;;;-5.74;31.50
80640;BME280;69992;60.170;24.692;2023-11-19T04:22:36;101640.89;;;-6.60;31.49
80640;BME280;69992;60.170;24.692;2023-11-19T04:25:02;101642.06;;;-5.44;31.49
80640;BME280;69992;60.170;24.692;2023-11-19T04:27:27;101638.64;;;-5.27;31.48
80640;BME280;69992;60.170;24.692;2023-11-19T04:29:53;101636.12;;;-8.12;31.52
80640;BME280;69992;60.170;24.692;2023-11-19T04:32:18;101633.72;;;-5.05;31.51
80640;BME280;69992;60.170;24.692;2023-11-19T04:34:44;101633.16;;;-5.90;31.51
80640;BME280;69992;60.170;24.692;2023-11-19T04:37:10;101631.14;;;-6.86;31.51
80640;BME280;69992;60.170;24.692;2023-11-19T04:39:35;101628.86;;;-6.74;31.47
80640;BME280;69992;60.170;24.692;2023-11-19T04:42:00;101627.56;;;-5.69;31.47
80640;BME280;69992;60.170;24.692;2023-11-19T04:44:25;101624.08;;;-5.68;31.51
80640;BME280;69992;60.170;24.692;2023-11-19T04:46:51;101624.07;;;-7.57;31.52
80640;BME280;69992;60.170;24.692;2023-11-19T04:49:17;101623.14;;;-4.52;31.53
80640;BME280;69992;60.170;24.692;2023-11-19T04:51:42;101617.89;;;-5.44;31.53
80640;BME280;69992;60.170;24.692;2023-11-19T04:54:08;101618.35;;;-5.34;31.54
80640;BME280;69992;60.170;24.692;2023-11-19T04:56:32;101619.52;;;-5.11;31.48
80640;BME280;69992;60.170;24.692;2023-11-19T04:58:58;101617.48;;;-6.96;31.47
80640;BME280;69992;60.170;24.692;2023-11-19T05:01:23;101616.89;;;-4.97;31.46
80640;BME280;69992;60.170;24.692;2023-11-19T05:03:49;101615.63;;;-5.90;31.48
80640;BME280;69992;60.170;24.692;2023-11-19T05:06:14;101617.28;;;-4.92;31.51
80640;BME280;69992;60.170;24.692;2023-11-19T05:08:40;101608.26;;;-4.91;31.52
80640;BME280;69992;60.170;24.692;2023-11-19T05:11:05;101610.16;;;-5.00;31.57
80640;BME280;69992;60.170;24.692;2023-11-19T05:13:30;101611.22;;;-4.89;31.57
80640;BME280;69992;60.170;24.692;2023-11-19T05:15:55;101609.52;;;-5.72;31.53
80640;BME280;69992;60.170;24.692;2023-11-19T05:18:21;101611.38;;;-4.71;31.52
80640;BME280;69992;60.170;24.692;2023-11-19T05:20:47;101610.28;;;-4.71;31.49
80640;BME280;69992;60.170;24.692;2023-11-19T05:23:12;101607.83;;;-5.74;31.52
80640;BME280;69992;60.170;24.692;2023-11-19T05:25:37;101604.35;;;-4.88;31.56
80640;BME280;69992;60.170;24.692;2023-11-19T05:28:03;101600.62;;;-5.85;31.62
80640;BME280;69992;60.170;24.692;2023-11-19T05:30:28;101597.58;;;-4.80;31.61
80640;BME280;69992;60.170;24.692;2023-11-19T05:32:54;101600.02;;;-6.63;31.58
80640;BME280;69992;60.170;24.692;2023-11-19T05:35:19;101600.93;;;-4.69;31.59
80640;BME280;69992;60.170;24.692;2023-11-19T05:37:46;101598.46;;;-4.70;31.62
80640;BME280;69992;60.170;24.692;2023-11-19T05:40:10;101593.48;;;-5.72;31.66
80640;BME280;69992;60.170;24.692;2023-11-19T05:42:37;101593.73;;;-4.66;31.66
80640;BME280;69992;60.170;24.692;2023-11-19T05:45:01;101590.08;;;-5.58;31.64
80640;BME280;69992;60.170;24.692;2023-11-19T05:47:26;101594.80;;;-4.51;31.63
80640;BME280;69992;60.170;24.692;2023-11-19T05:49:52;101597.78;;;-7.53;31.67
80640;BME280;69992;60.170;24.692;2023-11-19T05:52:17;101597.48;;;-4.61;31.69
80640;BME280;69992;60.170;24.692;2023-11-19T05:54:42;101599.55;;;-4.67;31.74
80640;BME280;69992;60.170;24.692;2023-11-19T05:57:07;101599.01;;;-5.60;31.74
80640;BME280;69992;60.170;24.692;2023-11-19T05:59:34;101600.86;;;-4.54;31.73
80640;BME280;69992;60.170;24.692;2023-11-19T06:01:58;101600.14;;;-5.39;31.72
80640;BME280;69992;60.170;24.692;2023-11-19T06:04:24;101597.62;;;-5.30;31.71
80640;BME280;69992;60.170;24.692;2023-11-19T06:06:49;101599.86;;;-6.22;31.70
80640;BME280;69992;60.170;24.692;2023-11-19T06:09:15;101602.44;;;-4.19;31.69
80640;BME280;69992;60.170;24.692;2023-11-19T06:11:40;101602.53;;;-5.19;31.69
80640;BME280;69992;60.170;24.692;2023-11-19T06:14:06;101601.92;;;-6.11;31.73
80640;BME280;69992;60.170;24.692;2023-11-19T06:16:31;101600.17;;;-4.09;31.71
80640;BME280;69992;60.170;24.692;2023-11-19T06:18:56;101602.42;;;-5.96;31.71
80640;BME280;69992;60.170;24.692;2023-11-19T06:21:22;101601.05;;;-4.00;31.70
80640;BME280;69992;60.170;24.692;2023-11-19T06:23:48;101592.54;;;-4.87;31.66
80640;BME280;69992;60.170;24.692;2023-11-19T06:26:12;101593.14;;;-5.85;31.68
80640;BME280;69992;60.170;24.692;2023-11-19T06:28:38;101590.92;;;-4.90;31.70
80640;BME280;69992;60.170;24.692;2023-11-19T06:31:04;101589.02;;;-4.94;31.76
80640;BME280;69992;60.170;24.692;2023-11-19T06:33:29;101589.72;;;-4.91;31.77
80640;BME280;69992;60.170;24.692;2023-11-19T06:35:54;101589.31;;;-5.82;31.79
80640;BME280;69992;60.170;24.692;2023-11-19T06:38:20;101588.12;;;-5.71;31.76
80640;BME280;69992;60.170;24.692;2023-11-19T06:40:45;101587.95;;;-3.85;31.80
80640;BME280;69992;60.170;24.692;2023-11-19T06:43:11;101587.35;;;-3.84;31.81
80640;BME280;69992;60.170;24.692;2023-11-19T06:45:36;101587.46;;;-3.87;31.85
80640;BME280;69992;60.170;24.692;2023-11-19T06:48:01;101587.99;;;-5.70;31.85
80640;BME280;69992;60.170;24.692;2023-11-19T06:50:27;101586.76;;;-4.59;31.80
80640;BME280;69992;60.170;24.692;2023-11-19T06:52:52;101586.56;;;-6.60;31.85
80640;BME280;69992;60.170;24.692;2023-11-19T06:55:17;101585.57;;;-4.57;31.84
80640;BME280;69992;60.170;24.692;2023-11-19T06:57:43;101589.58;;;-4.49;31.80
80640;BME280;69992;60.170;24.692;2023-11-19T07:00:09;101583.83;;;-3.46;31.81
80640;BME280;69992;60.170;24.692;2023-11-19T07:02:34;101585.00;;;-4.39;31.81
80640;BME280;69992;60.170;24.692;2023-11-19T07:04:59;101583.37;;;-4.38;31.83
80640;BME280;69992;60.170;24.692;2023-11-19T07:07:25;101580.11;;;-3.38;31.84
80640;BME280;69992;60.170;24.692;2023-11-19T07:09:50;101576.38;;;-5.31;31.87
80640;BME280;69992;60.170;24.692;2023-11-19T07:12:15;101575.57;;;-5.28;31.88
80640;BME280;69992;60.170;24.692;2023-11-19T07:14:40;101570.19;;;-4.27;31.86
80640;BME280;69992;60.170;24.692;2023-11-19T07:17:07;101566.17;;;-5.19;31.86
80640;BME280;69992;60.170;24.692;2023-11-19T07:19:31;101563.50;;;-3.18;31.86
80640;BME280;69992;60.170;24.692;2023-11-19T07:21:57;101557.84;;;-4.18;31.86
80640;BME280;69992;60.170;24.692;2023-11-19T07:24:22;101555.31;;;-5.27;31.94
80640;BME280;69992;60.170;24.692;2023-11-19T07:26:48;101553.37;;;-5.24;31.96
80640;BME280;69992;60.170;24.692;2023-11-19T07:29:13;101549.93;;;-4.15;31.95
80640;BME280;69992;60.170;24.692;2023-11-19T07:31:39;101550.23;;;-5.10;31.95
80640;BME280;69992;60.170;24.692;2023-11-19T07:34:04;101547.45;;;-5.08;31.97
80640;BME280;69992;60.170;24.692;2023-11-19T07:36:30;101543.71;;;-4.00;31.93
80640;BME280;69992;60.170;24.692;2023-11-19T07:38:54;101541.21;;;-4.82;31.91
80640;BME280;69992;60.170;24.692;2023-11-19T07:41:20;101539.14;;;-4.70;31.88
80640;BME280;69992;60.170;24.692;2023-11-19T07:43:45;101540.67;;;-4.60;31.86
80640;BME280;69992;60.170;24.692;2023-11-19T07:46:11;101538.37;;;-4.57;31.87
80640;BME280;69992;60.170;24.692;2023-11-19T07:48:36;101531.35;;;-3.53;31.85
80640;BME280;69992;60.170;24.692;2023-11-19T07:51:02;101528.38;;;-4.52;31.88
80640;BME280;69992;60.170;24.692;2023-11-19T07:53:27;101526.83;;;-4.53;31.86
80640;BME280;69992;60.170;24.692;2023-11-19T07:55:52;101524.94;;;-6.60;31.89
80640;BME280;69992;60.170;24.692;2023-11-19T07:58:18;101526.85;;;-4.59;31.90
80640;BME280;69992;60.170;24.692;2023-11-19T08:00:43;101528.64;;;-2.58;31.90
80640;BME280;69992;60.170;24.692;2023-11-19T08:03:08;101526.57;;;-4.41;31.87
80640;BME280;69992;60.170;24.692;2023-11-19T08:05:34;101522.63;;;-4.31;31.86
80640;BME280;69992;60.170;24.692;2023-11-19T08:07:59;101522.23;;;-6.14;31.84
80640;BME280;69992;60.170;24.692;2023-11-19T08:10:25;101520.67;;;-4.22;31.84
80640;BME280;69992;60.170;24.692;2023-11-19T08:12:50;101519.16;;;-5.24;31.87
80640;BME280;69992;60.170;24.692;2023-11-19T08:15:16;101518.55;;;-4.26;31.86
80640;BME280;69992;60.170;24.692;2023-11-19T08:17:41;101516.94;;;-4.31;31.86
80640;BME280;69992;60.170;24.692;2023-11-19T08:20:08;101517.82;;;-4.31;31.88
80640;BME280;69992;60.170;24.692;2023-11-19T08:22:31;101515.91;;;-4.27;31.86
80640;BME280;69992;60.170;24.692;2023-11-19T08:24:57;101513.71;;;-5.18;31.86
80640;BME280;69992;60.170;24.692;2023-11-19T08:27:22;101518.89;;;-4.12;31.82
80640;BME280;69992;60.170;24.692;2023-11-19T08:29:48;101518.93;;;-3.15;31.82
80640;BME280;69992;60.170;24.692;2023-11-19T08:32:14;101519.49;;;-4.20;31.88
80640;BME280;69992;60.170;24.692;2023-11-19T08:34:40;101518.99;;;-4.24;31.89
80640;BME280;69992;60.170;24.692;2023-11-19T08:37:06;101516.55;;;-4.22;31.87
80640;BME280;69992;60.170;24.692;2023-11-19T08:39:31;101515.48;;;-4.17;31.87
80640;BME280;69992;60.170;24.692;2023-11-19T08:41:57;101511.65;;;-6.05;31.86
80640;BME280;69992;60.170;24.692;2023-11-19T08:44:23;101510.77;;;-3.92;31.83
80640;BME280;69992;60.170;24.692;2023-11-19T08:46:50;101512.07;;;-4.77;31.78
80640;BME280;69992;60.170;24.692;2023-11-19T08:49:15;101512.55;;;-3.78;31.80
80640;BME280;69992;60.170;24.692;2023-11-19T08:51:41;101514.03;;;-3.75;31.81
80640;BME280;69992;60.170;24.692;2023-11-19T08:54:07;101508.03;;;-3.73;31.81
80640;BME280;69992;60.170;24.692;2023-11-19T08:56:32;101507.97;;;-3.70;31.80
80640;BME280;69992;60.170;24.692;2023-11-19T08:58:58;101506.36;;;-4.69;31.84
80640;BME280;69992;60.170;24.692;2023-11-19T09:01:23;101507.04;;;-3.69;31.83
80640;BME280;69992;60.170;24.692;2023-11-19T09:03:49;101504.99;;;-5.69;31.87
80640;BME280;69992;60.170;24.692;2023-11-19T09:06:15;101505.45;;;-3.62;31.85
80640;BME280;69992;60.170;24.692;2023-11-19T09:08:42;101503.85;;;-3.60;31.87
80640;BME280;69992;60.170;24.692;2023-11-19T09:11:08;101504.99;;;-3.49;31.87
80640;BME280;69992;60.170;24.692;2023-11-19T09:13:32;101503.01;;;-3.32;31.82
80640;BME280;69992;60.170;24.692;2023-11-19T09:15:58;101501.72;;;-5.17;31.82
80640;BME280;69992;60.170;24.692;2023-11-19T09:18:24;101499.29;;;-3.08;31.79
80640;BME280;69992;60.170;24.692;2023-11-19T09:20:50;101500.99;;;-3.93;31.77
80640;BME280;69992;60.170;24.692;2023-11-19T09:23:15;101502.09;;;-2.87;31.76
80640;BME280;69992;60.170;24.692;2023-11-19T09:25:41;101501.96;;;-2.80;31.76
80640;BME280;69992;60.170;24.692;2023-11-19T09:28:07;101507.00;;;-3.84;31.80
80640;BME280;69992;60.170;24.692;2023-11-19T09:30:33;101505.24;;;-3.78;31.79
80640;BME280;69992;60.170;24.692;2023-11-19T09:32:59;101506.09;;;-4.77;31.79
80640;BME280;69992;60.170;24.692;2023-11-19T09:35:24;101506.63;;;-3.94;31.82
80640;BME280;69992;60.170;24.692;2023-11-19T09:37:51;101507.44;;;-5.07;31.88
80640;BME280;69992;60.170;24.692;2023-11-19T09:40:16;101504.05;;;-3.17;31.91
80640;BME280;69992;60.170;24.692;2023-11-19T09:42:44;101504.56;;;-4.13;31.94
80640;BME280;69992;60.170;24.692;2023-11-19T09:45:12;101501.38;;;-4.09;31.95
80640;BME280;69992;60.170;24.692;2023-11-19T09:47:34;101500.55;;;-3.03;31.93
80640;BME280;69992;60.170;24.692;2023-11-19T09:50:00;101500.12;;;-3.93;31.93
80640;BME280;69992;60.170;24.692;2023-11-19T09:52:25;101497.62;;;-2.94;31.93
80640;BME280;69992;60.170;24.692;2023-11-19T09:54:51;101492.68;;;-4.84;31.93
80640;BME280;69992;60.170;24.692;2023-11-19T09:57:17;101490.26;;;-3.77;31.92
80640;BME280;69992;60.170;24.692;2023-11-19T09:59:43;101489.73;;;-3.71;31.89
80640;BME280;69992;60.170;24.692;2023-11-19T10:02:09;101488.52;;;-3.65;31.91
80640;BME280;69992;60.170;24.692;2023-11-19T10:04:35;101491.09;;;-2.64;31.93
80640;BME280;69992;60.170;24.692;2023-11-19T10:07:00;101485.50;;;-3.62;31.98
80640;BME280;69992;60.170;24.692;2023-11-19T10:09:26;101484.19;;;-3.52;31.98
80640;BME280;69992;60.170;24.692;2023-11-19T10:11:52;101481.02;;;-3.46;31.96
80640;BME280;69992;60.170;24.692;2023-11-19T10:14:20;101479.13;;;-4.47;31.99
80640;BME280;69992;60.170;24.692;2023-11-19T10:16:44;101478.36;;;-3.45;31.97
80640;BME280;69992;60.170;24.692;2023-11-19T10:19:13;101481.14;;;-3.57;32.01
80640;BME280;69992;60.170;24.692;2023-11-19T10:21:35;101481.77;;;-3.80;32.10
80640;BME280;69992;60.170;24.692;2023-11-19T10:24:01;101480.79;;;-2.95;32.18
80640;BME280;69992;60.170;24.692;2023-11-19T10:26:27;101476.16;;;-3.90;32.18
80640;BME280;69992;60.170;24.692;2023-11-19T10:28:53;101476.19;;;-4.95;32.18
80640;BME280;69992;60.170;24.692;2023-11-19T10:31:19;101474.85;;;-2.96;32.14
80640;BME280;69992;60.170;24.692;2023-11-19T10:33:44;101476.08;;;-2.97;32.13
80640;BME280;69992;60.170;24.692;2023-11-19T10:36:11;101474.85;;;-4.97;32.14
80640;BME280;69992;60.170;24.692;2023-11-19T10:38:36;101473.21;;;-4.01;32.15
80640;BME280;69992;60.170;24.692;2023-11-19T10:41:01;101469.46;;;-4.12;32.17
80640;BME280;69992;60.170;24.692;2023-11-19T10:43:27;101467.66;;;-3.30;32.20
80640;BME280;69992;60.170;24.692;2023-11-19T10:45:53;101467.21;;;-5.36;32.20
80640;BME280;69992;60.170;24.692;2023-11-19T10:48:19;101469.61;;;-3.66;32.23
80640;BME280;69992;60.170;24.692;2023-11-19T10:50:48;101466.05;;;-3.74;32.25
80640;BME280;69992;60.170;24.692;2023-11-19T10:53:12;101467.57;;;-3.83;32.29
80640;BME280;69992;60.170;24.692;2023-11-19T10:55:37;101466.60;;;-3.88;32.33
80640;BME280;69992;60.170;24.692;2023-11-19T10:58:03;101467.02;;;-3.87;32.35
80640;BME280;69992;60.170;24.692;2023-11-19T11:00:30;101462.24;;;-3.71;32.29
80640;BME280;69992;60.170;24.692;2023-11-19T11:02:56;101463.16;;;-5.46;32.22
80640;BME280;69992;60.170;24.692;2023-11-19T11:05:22;101461.76;;;-4.28;32.13
80640;BME280;69992;60.170;24.692;2023-11-19T11:07:45;101460.24;;;-4.27;32.17
80640;BME280;69992;60.170;24.692;2023-11-19T11:10:13;101460.36;;;-4.14;32.15
80640;BME280;69992;60.170;24.692;2023-11-19T11:12:37;101460.65;;;-4.06;32.16
80640;BME280;69992;60.170;24.692;2023-11-19T11:15:05;101458.83;;;-4.85;32.14
80640;BME280;69992;60.170;24.692;2023-11-19T11:17:30;101456.77;;;-3.69;32.10
80640;BME280;69992;60.170;24.692;2023-11-19T11:19:55;101449.31;;;-4.53;32.08
80640;BME280;69992;60.170;24.692;2023-11-19T11:22:21;101441.76;;;-3.50;32.05
80640;BME280;69992;60.170;24.692;2023-11-19T11:25:00;101439.07;;;-3.50;32.04
80640;BME280;69992;60.170;24.692;2023-11-19T11:27:27;101439.83;;;-3.49;32.04
80640;BME280;69992;60.170;24.692;2023-11-19T11:29:41;101443.19;;;-3.40;31.98
80640;BME280;69992;60.170;24.692;2023-11-19T11:32:12;101442.21;;;-3.42;31.99
80640;BME280;69992;60.170;24.692;2023-11-19T11:34:42;101439.36;;;-2.46;32.02
80640;BME280;69992;60.170;24.692;2023-11-19T11:37:03;101436.75;;;-4.36;32.01
80640;BME280;69992;60.170;24.692;2023-11-19T11:39:22;101432.11;;;-2.32;31.99
80640;BME280;69992;60.170;24.692;2023-11-19T11:41:46;101430.46;;;-3.27;31.99
80640;BME280;69992;60.170;24.692;2023-11-19T11:44:12;101430.34;;;-3.30;32.05
80640;BME280;69992;60.170;24.692;2023-11-19T11:46:53;101428.82;;;-3.29;32.06
80640;BME280;69992;60.170;24.692;2023-11-19T11:49:04;101429.50;;;-2.21;32.02
80640;BME280;69992;60.170;24.692;2023-11-19T11:53:58;101428.37;;;-4.29;32.13
80640;BME280;69992;60.170;24.692;2023-11-19T11:56:21;101423.30;;;-3.24;32.09
80640;BME280;69992;60.170;24.692;2023-11-19T11:58:48;101424.04;;;-3.26;32.10
80640;BME280;69992;60.170;24.692;2023-11-19T12:01:15;101420.02;;;-2.31;32.12
80640;BME280;69992;60.170;24.692;2023-11-19T12:03:38;101418.41;;;-4.29;32.17
80640;BME280;69992;60.170;24.692;2023-11-19T12:06:04;101413.62;;;-4.19;32.14
80640;BME280;69992;60.170;24.692;2023-11-19T12:08:30;101412.92;;;-3.14;32.13
80640;BME280;69992;60.170;24.692;2023-11-19T12:10:56;101410.99;;;-4.14;32.17
80640;BME280;69992;60.170;24.692;2023-11-19T12:13:21;101408.06;;;-3.23;32.21
80640;BME280;69992;60.170;24.692;2023-11-19T12:16:08;101410.27;;;-3.28;32.24
80640;BME280;69992;60.170;24.692;2023-11-19T12:18:18;101409.85;;;-4.11;32.15
80640;BME280;69992;60.170;24.692;2023-11-19T12:20:38;101407.15;;;-3.24;32.17
80640;BME280;69992;60.170;24.692;2023-11-19T12:23:05;101405.69;;;-3.38;32.21
80640;BME280;69992;60.170;24.692;2023-11-19T12:25:34;101404.57;;;-3.38;32.21
80640;BME280;69992;60.170;24.692;2023-11-19T12:27:55;101403.66;;;-4.40;32.20
80640;BME280;69992;60.170;24.692;2023-11-19T12:30:22;101407.17;;;-2.44;32.17
80640;BME280;69992;60.170;24.692;2023-11-19T12:32:48;101406.78;;;-3.47;32.14